Time,TemperatureF,DewpointF,PressureIn,WindDirection,WindDirectionDegrees,WindSpeedMPH,WindSpeedGustMPH,Humidity,HourlyPrecipIn,Conditions,Clouds,dailyrainin,SoftwareType,DateUTC
2013-04-21 00:01:00,59.0,11.0,30.39,NNW,330,3.0,-999.0,15,-99.99,,,-99.99,,2013-04-21 07:01:00,
2013-04-21 00:11:00,58.0,11.0,30.39,ENE,75,2.0,-999.0,15,-99.99,,,-99.99,,2013-04-21 07:11:00,
2013-04-21 00:21:00,58.0,11.0,30.39,ENE,75,2.0,-999.0,15,-99.99,,,-99.99,,2013-04-21 07:21:00,
2013-04-21 00:31:00,58.0,12.0,30.40,ENE,75,1.0,-999.0,16,-99.99,,,-99.99,,2013-04-21 07:31:00,
2013-04-21 00:41:00,58.0,12.0,30.40,ENE,75,1.0,-999.0,16,-99.99,,,-99.99,,2013-04-21 07:41:00,
2013-04-21 00:52:00,56.0,12.0,30.38,NW,325,2.0,-999.0,17,-99.99,,,-99.99,,2013-04-21 07:52:00,
2013-04-21 01:01:00,57.0,11.0,30.38,NW,325,0.0,-999.0,16,-99.99,,,-99.99,,2013-04-21 08:01:00,
2013-04-21 01:11:00,58.0,12.0,30.40,NW,325,0.0,-999.0,16,-99.99,,,-99.99,,2013-04-21 08:11:00,
2013-04-21 01:21:00,58.0,12.0,30.40,NW,325,0.0,-999.0,16,-99.99,,,-99.99,,2013-04-21 08:21:00,
2013-04-21 01:31:00,55.0,12.0,30.40,NW,325,1.0,-999.0,18,-99.99,,,-99.99,,2013-04-21 08:31:00,
2013-04-21 01:41:00,55.0,12.0,30.40,NW,325,1.0,-999.0,18,-99.99,,,-99.99,,2013-04-21 08:41:00,
2013-04-21 01:52:00,52.0,12.0,30.40,North,-999,-999.0,-999.0,20,-99.99,,,-99.99,,2013-04-21 08:52:00,
2013-04-21 08:02:00,65.0,-99.9,30.47,SSE,165,4.0,-999.0,-999,-99.99,,,-99.99,,2013-04-21 15:02:00,
2013-04-21 08:33:00,67.0,13.0,30.45,SSW,195,3.0,-999.0,12,-99.99,,,-99.99,,2013-04-21 15:33:00,
2013-04-21 08:42:00,67.0,13.0,30.45,SSW,195,3.0,-999.0,12,-99.99,,,-99.99,,2013-04-21 15:42:00,
2013-04-21 08:53:00,68.0,14.0,30.45,South,171,2.0,-999.0,12,-99.99,,,-99.99,,2013-04-21 15:53:00,
2013-04-21 09:03:00,69.0,14.0,30.45,SSE,154,2.0,-999.0,12,-99.99,,,-99.99,,2013-04-21 16:03:00,
2013-04-21 09:12:00,69.0,14.0,30.45,SSE,154,2.0,-999.0,12,-99.99,,,-99.99,,2013-04-21 16:12:00,
2013-04-21 09:22:00,69.0,12.0,30.47,North,-999,-999.0,-999.0,11,-99.99,,,-99.99,,2013-04-21 16:22:00,
2013-04-21 09:32:00,69.0,12.0,30.46,North,-999,-999.0,-999.0,11,-99.99,,,-99.99,,2013-04-21 16:32:00,
2013-04-21 09:42:00,69.0,12.0,30.46,North,-999,-999.0,-999.0,11,-99.99,,,-99.99,,2013-04-21 16:42:00,
2013-04-21 09:52:00,71.0,14.0,30.45,North,-999,-999.0,-999.0,11,-99.99,,,-99.99,,2013-04-21 16:52:00,
2013-04-21 10:01:00,71.0,14.0,30.45,ESE,109,3.0,-999.0,11,-99.99,,,-99.99,,2013-04-21 17:01:00,
2013-04-21 10:12:00,72.0,12.0,30.47,South,184,4.0,-999.0,10,-99.99,,,-99.99,,2013-04-21 17:12:00,
2013-04-21 10:22:00,72.0,12.0,30.47,South,184,4.0,-999.0,10,-99.99,,,-99.99,,2013-04-21 17:22:00,
2013-04-21 10:32:00,74.0,14.0,30.45,North,-999,-999.0,-999.0,10,-99.99,,,-99.99,,2013-04-21 17:32:00,
2013-04-21 10:41:00,74.0,14.0,30.45,North,-999,-999.0,-999.0,10,-99.99,,,-99.99,,2013-04-21 17:41:00,
2013-04-21 10:52:00,74.0,12.0,30.44,East,96,4.0,-999.0,9,-99.99,,,-99.99,,2013-04-21 17:52:00,
2013-04-21 11:02:00,74.0,12.0,30.44,North,-999,-999.0,-999.0,9,-99.99,,,-99.99,,2013-04-21 18:02:00,
2013-04-21 11:11:00,74.0,12.0,30.44,North,-999,-999.0,-999.0,9,-99.99,,,-99.99,,2013-04-21 18:11:00,
2013-04-21 11:21:00,75.0,12.0,30.44,NNE,27,4.0,-999.0,9,-99.99,,,-99.99,,2013-04-21 18:21:00,
2013-04-21 11:32:00,75.0,12.0,30.44,North,11,3.0,-999.0,9,-99.99,,,-99.99,,2013-04-21 18:32:00,
2013-04-21 11:42:00,75.0,12.0,30.44,North,11,3.0,-999.0,9,-99.99,,,-99.99,,2013-04-21 18:42:00,
2013-04-21 11:52:00,76.0,10.0,30.42,SE,137,3.0,-999.0,8,-99.99,,,-99.99,,2013-04-21 18:52:00,
2013-04-21 12:02:00,76.0,13.0,30.42,NE,35,5.0,-999.0,9,-99.99,,,-99.99,,2013-04-21 19:02:00,
2013-04-21 12:11:00,76.0,13.0,30.42,NE,35,5.0,-999.0,9,-99.99,,,-99.99,,2013-04-21 19:11:00,
2013-04-21 12:21:00,77.0,11.0,30.42,NNE,20,9.0,-999.0,8,-99.99,,,-99.99,,2013-04-21 19:21:00,
2013-04-21 12:31:00,77.0,11.0,30.41,ENE,59,5.0,-999.0,8,-99.99,,,-99.99,,2013-04-21 19:31:00,
2013-04-21 12:42:00,77.0,11.0,30.41,ENE,59,5.0,-999.0,8,-99.99,,,-99.99,,2013-04-21 19:42:00,
2013-04-21 12:52:00,78.0,9.0,30.41,East,88,6.0,-999.0,7,-99.99,,,-99.99,,2013-04-21 19:52:00,
2013-04-21 13:01:00,78.0,9.0,30.40,East,85,7.0,-999.0,7,-99.99,,,-99.99,,2013-04-21 20:01:00,
2013-04-21 13:11:00,78.0,9.0,30.40,East,85,7.0,-999.0,7,-99.99,,,-99.99,,2013-04-21 20:11:00,
2013-04-21 13:52:00,81.0,-99.9,30.40,NW,319,8.0,-999.0,-999,-99.99,,,-99.99,,2013-04-21 20:52:00,
2013-04-21 14:01:00,80.0,3.0,30.39,West,281,9.0,-999.0,5,-99.99,,,-99.99,,2013-04-21 21:01:00,
2013-04-21 14:12:00,80.0,3.0,30.37,NNW,343,7.0,-999.0,5,-99.99,,,-99.99,,2013-04-21 21:12:00,
2013-04-21 14:21:00,80.0,3.0,30.37,NNW,343,7.0,-999.0,5,-99.99,,,-99.99,,2013-04-21 21:21:00,
2013-04-21 14:32:00,80.0,3.0,30.38,WNW,289,6.0,-999.0,5,-99.99,,,-99.99,,2013-04-21 21:32:00,
2013-04-21 14:43:00,80.0,3.0,30.38,WNW,289,6.0,-999.0,5,-99.99,,,-99.99,,2013-04-21 21:43:00,
2013-04-21 14:53:00,81.0,8.0,30.38,WNW,282,10.0,-999.0,6,-99.99,,,-99.99,,2013-04-21 21:53:00,
2013-04-21 15:02:00,81.0,8.0,30.37,NNW,328,8.0,-999.0,6,-99.99,,,-99.99,,2013-04-21 22:02:00,
2013-04-21 15:12:00,81.0,8.0,30.37,NNW,330,10.0,-999.0,6,-99.99,,,-99.99,,2013-04-21 22:12:00,
2013-04-21 15:22:00,81.0,8.0,30.37,NNW,330,10.0,-999.0,6,-99.99,,,-99.99,,2013-04-21 22:22:00,
2013-04-21 15:32:00,82.0,8.0,30.35,NNW,328,10.0,-999.0,6,-99.99,,,-99.99,,2013-04-21 22:32:00,
2013-04-21 15:42:00,82.0,8.0,30.35,NNW,328,10.0,-999.0,6,-99.99,,,-99.99,,2013-04-21 22:42:00,
2013-04-21 15:52:00,81.0,8.0,30.36,NNW,340,7.0,-999.0,6,-99.99,,,-99.99,,2013-04-21 22:52:00,
2013-04-21 16:02:00,81.0,4.0,30.35,NW,322,9.0,-999.0,5,-99.99,,,-99.99,,2013-04-21 23:02:00,
2013-04-21 16:11:00,81.0,4.0,30.35,NW,322,9.0,-999.0,5,-99.99,,,-99.99,,2013-04-21 23:11:00,
2013-04-21 16:22:00,81.0,4.0,30.35,WNW,288,8.0,-999.0,5,-99.99,,,-99.99,,2013-04-21 23:22:00,
2013-04-21 16:32:00,81.0,4.0,30.35,NNW,329,8.0,-999.0,5,-99.99,,,-99.99,,2013-04-21 23:32:00,
2013-04-21 16:42:00,81.0,4.0,30.35,NNW,329,8.0,-999.0,5,-99.99,,,-99.99,,2013-04-21 23:42:00,
2013-04-21 16:52:00,81.0,4.0,30.35,NW,316,9.0,-999.0,5,-99.99,,,-99.99,,2013-04-21 23:52:00,
2013-04-21 17:01:00,81.0,4.0,30.35,WNW,294,7.0,-999.0,5,-99.99,,,-99.99,,2013-04-22 00:01:00,
2013-04-21 17:11:00,81.0,4.0,30.35,WNW,294,7.0,-999.0,5,-99.99,,,-99.99,,2013-04-22 00:11:00,
2013-04-21 17:21:00,80.0,3.0,30.33,NW,309,11.0,-999.0,5,-99.99,,,-99.99,,2013-04-22 00:21:00,
2013-04-21 17:31:00,79.0,6.0,30.34,NNW,328,10.0,-999.0,6,-99.99,,,-99.99,,2013-04-22 00:31:00,
2013-04-21 17:42:00,79.0,6.0,30.34,NNW,328,10.0,-999.0,6,-99.99,,,-99.99,,2013-04-22 00:42:00,
2013-04-21 17:51:00,79.0,6.0,30.33,NW,308,7.0,-999.0,6,-99.99,,,-99.99,,2013-04-22 00:51:00,
2013-04-21 18:01:00,79.0,6.0,30.34,WNW,296,9.0,-999.0,6,-99.99,,,-99.99,,2013-04-22 01:01:00,
2013-04-21 18:11:00,79.0,6.0,30.34,WNW,296,9.0,-999.0,6,-99.99,,,-99.99,,2013-04-22 01:11:00,
2013-04-21 18:21:00,78.0,6.0,30.35,WNW,291,8.0,-999.0,6,-99.99,,,-99.99,,2013-04-22 01:21:00,
2013-04-21 18:32:00,77.0,5.0,30.35,NW,316,4.0,-999.0,6,-99.99,,,-99.99,,2013-04-22 01:32:00,
2013-04-21 18:41:00,77.0,5.0,30.35,NW,316,4.0,-999.0,6,-99.99,,,-99.99,,2013-04-22 01:41:00,
2013-04-21 18:52:00,76.0,4.0,30.34,NNW,332,5.0,-999.0,6,-99.99,,,-99.99,,2013-04-22 01:52:00,
2013-04-21 19:01:00,75.0,3.0,30.36,NNW,328,5.0,-999.0,6,-99.99,,,-99.99,,2013-04-22 02:01:00,
2013-04-21 19:11:00,72.0,5.0,30.35,NNW,328,3.0,-999.0,7,-99.99,,,-99.99,,2013-04-22 02:11:00,
2013-04-21 19:21:00,72.0,5.0,30.35,NNW,328,3.0,-999.0,7,-99.99,,,-99.99,,2013-04-22 02:21:00,
2013-04-21 19:31:00,70.0,3.0,30.35,NNW,329,4.0,-999.0,7,-99.99,,,-99.99,,2013-04-22 02:31:00,
2013-04-21 19:41:00,70.0,3.0,30.35,NNW,329,4.0,-999.0,7,-99.99,,,-99.99,,2013-04-22 02:41:00,
2013-04-21 19:52:00,70.0,3.0,30.35,NW,308,5.0,-999.0,7,-99.99,,,-99.99,,2013-04-22 02:52:00,
2013-04-21 20:01:00,71.0,4.0,30.36,NW,325,4.0,-999.0,7,-99.99,,,-99.99,,2013-04-22 03:01:00,
2013-04-21 20:11:00,71.0,4.0,30.36,NW,325,4.0,-999.0,7,-99.99,,,-99.99,,2013-04-22 03:11:00,
2013-04-21 20:22:00,71.0,7.0,30.36,NNW,335,4.0,-999.0,8,-99.99,,,-99.99,,2013-04-22 03:22:00,
2013-04-21 20:33:00,70.0,6.0,30.38,NNW,337,4.0,-999.0,8,-99.99,,,-99.99,,2013-04-22 03:33:00,
2013-04-21 20:42:00,70.0,6.0,30.38,NNW,337,4.0,-999.0,8,-99.99,,,-99.99,,2013-04-22 03:42:00,
2013-04-21 20:52:00,69.0,5.0,30.38,NNW,336,3.0,-999.0,8,-99.99,,,-99.99,,2013-04-22 03:52:00,
2013-04-21 21:02:00,68.0,7.0,30.37,NNW,337,4.0,-999.0,9,-99.99,,,-99.99,,2013-04-22 04:02:00,
2013-04-21 21:12:00,68.0,7.0,30.37,NNW,337,4.0,-999.0,9,-99.99,,,-99.99,,2013-04-22 04:12:00,
2013-04-21 21:23:00,68.0,7.0,30.37,NNW,336,3.0,-999.0,9,-99.99,,,-99.99,,2013-04-22 04:23:00,
2013-04-21 21:32:00,68.0,7.0,30.39,NNW,337,1.0,-999.0,9,-99.99,,,-99.99,,2013-04-22 04:32:00,
2013-04-21 21:43:00,68.0,7.0,30.39,NNW,337,1.0,-999.0,9,-99.99,,,-99.99,,2013-04-22 04:43:00,
2013-04-21 21:52:00,67.0,9.0,30.39,NNW,337,2.0,-999.0,10,-99.99,,,-99.99,,2013-04-22 04:52:00,
2013-04-21 22:02:00,66.0,8.0,30.40,NNW,335,3.0,-999.0,10,-99.99,,,-99.99,,2013-04-22 05:02:00,
2013-04-21 22:11:00,66.0,10.0,30.40,NNW,335,2.0,-999.0,11,-99.99,,,-99.99,,2013-04-22 05:11:00,
2013-04-21 22:22:00,66.0,10.0,30.40,NNW,335,2.0,-999.0,11,-99.99,,,-99.99,,2013-04-22 05:22:00,
2013-04-21 22:32:00,64.0,8.0,30.39,NNW,333,2.0,-999.0,11,-99.99,,,-99.99,,2013-04-22 05:32:00,
2013-04-21 22:42:00,64.0,8.0,30.39,NNW,333,2.0,-999.0,11,-99.99,,,-99.99,,2013-04-22 05:42:00,
2013-04-21 22:52:00,62.0,9.0,30.40,NNW,330,3.0,-999.0,12,-99.99,,,-99.99,,2013-04-22 05:52:00,
2013-04-21 23:02:00,62.0,9.0,30.38,NNW,330,1.0,-999.0,12,-99.99,,,-99.99,,2013-04-22 06:02:00,
2013-04-21 23:11:00,62.0,9.0,30.38,NNW,330,1.0,-999.0,12,-99.99,,,-99.99,,2013-04-22 06:11:00,
2013-04-21 23:21:00,59.0,8.0,30.39,NNW,330,2.0,-999.0,13,-99.99,,,-99.99,,2013-04-22 06:21:00,
2013-04-21 23:32:00,62.0,9.0,30.40,NNW,330,1.0,-999.0,12,-99.99,,,-99.99,,2013-04-22 06:32:00,
2013-04-21 23:41:00,62.0,9.0,30.40,NNW,330,1.0,-999.0,12,-99.99,,,-99.99,,2013-04-22 06:41:00,
2013-04-21 23:52:00,62.0,9.0,30.40,NNW,336,1.0,-999.0,12,-99.99,,,-99.99,,2013-04-22 06:52:00,